Time;durP1;ratioP1;P1;durP2;ratioP2;P2;SDS_P1;SDS_P2;PMS_P1;PMS_P2;Temp;Humidity;BMP_temperature;BMP_pressure;BME280_temperature;BME280_humidity;BME280_pressure;Samples;Min_cycle;Max_cycle;Signal;HPM_P1;HPM_P2
2021/10/22 00:01:06;;;;;;;;;21.75;17.25;;;;;10.65;54.76;101519.38;5082222;27;45371;-48
2021/10/22 00:03:31;;;;;;;;;19.00;18.00;;;;;10.63;54.87;101518.53;5082266;27;45316;-50
2021/10/22 00:05:57;;;;;;;;;16.00;13.25;;;;;10.61;54.69;101514.16;5082216;27;45505;-52
2021/10/22 00:08:25;;;;;;;;;16.50;15.00;;;;;10.60;55.17;101515.91;5082199;27;46235;-51
2021/10/22 00:10:52;;;;;;;;;17.00;15.00;;;;;10.56;54.82;101522.94;5081919;27;45319;-48
2021/10/22 00:13:17;;;;;;;;;21.75;17.25;;;;;10.53;54.82;101528.19;5081979;27;45359;-48
2021/10/22 00:15:43;;;;;;;;;24.25;20.00;;;;;10.56;54.77;101535.19;5081625;27;45493;-49
2021/10/22 00:18:09;;;;;;;;;23.50;20.00;;;;;10.53;54.95;101541.31;5081853;27;45281;-49
2021/10/22 00:20:34;;;;;;;;;18.50;17.25;;;;;10.53;54.92;101543.94;5081805;27;45373;-52
2021/10/22 00:23:00;;;;;;;;;19.00;15.25;;;;;10.52;54.91;101543.97;5082111;27;45395;-50
2021/10/22 00:25:25;;;;;;;;;21.00;19.25;;;;;10.50;54.82;101541.34;5081746;27;45302;-49
2021/10/22 00:27:50;;;;;;;;;21.75;17.00;;;;;10.49;54.89;101542.22;5093113;27;45381;-50
2021/10/22 00:30:16;;;;;;;;;18.00;17.50;;;;;10.48;54.96;101539.59;5100865;27;45313;-52
2021/10/22 00:32:42;;;;;;;;;23.00;18.25;;;;;10.46;54.96;101544.81;5081875;27;45247;-50
2021/10/22 00:35:07;;;;;;;;;18.00;15.75;;;;;10.43;55.19;101544.84;5080173;27;45472;-51
2021/10/22 00:37:33;;;;;;;;;13.75;12.50;;;;;10.40;55.19;101543.09;5081719;27;45407;-51
2021/10/22 00:39:58;;;;;;;;;17.25;15.00;;;;;10.39;55.08;101549.22;5081567;27;45251;-51
2021/10/22 00:42:24;;;;;;;;;20.00;17.75;;;;;10.34;55.16;101537.81;5081540;27;45291;-51
2021/10/22 00:44:52;;;;;;;;;15.00;13.50;;;;;10.34;55.26;101540.44;5081447;27;45293;-51
2021/10/22 00:47:18;;;;;;;;;18.75;15.75;;;;;10.30;55.38;101538.69;5081402;27;46117;-48
2021/10/22 00:49:45;;;;;;;;;15.00;14.50;;;;;10.30;55.22;101536.06;5094282;27;45322;-49
2021/10/22 00:52:11;;;;;;;;;13.25;12.25;;;;;10.27;55.42;101536.03;5081413;27;45402;-49
2021/10/22 00:54:36;;;;;;;;;20.50;18.00;;;;;10.25;55.21;101540.41;5081250;27;45335;-49
2021/10/22 00:57:02;;;;;;;;;19.00;16.25;;;;;10.23;55.14;101543.06;5080906;27;46175;-48
2021/10/22 00:59:27;;;;;;;;;17.50;13.25;;;;;10.19;55.35;101538.69;5079939;27;45324;-47
2021/10/22 01:01:53;;;;;;;;;16.00;15.75;;;;;10.18;55.22;101538.69;5080484;27;45333;-51
2021/10/22 01:04:18;;;;;;;;;22.50;17.50;;;;;10.17;55.37;101543.03;5081257;27;45250;-50
2021/10/22 01:06:43;;;;;;;;;20.00;15.50;;;;;10.15;55.38;101549.19;5081286;27;45243;-48
2021/10/22 01:09:10;;;;;;;;;20.50;16.25;;;;;10.13;55.25;101549.19;5081081;27;45267;-53
2021/10/22 01:11:37;;;;;;;;;16.25;16.25;;;;;10.09;55.58;101550.94;5081083;27;45291;-49
2021/10/22 01:14:04;;;;;;;;;16.75;14.75;;;;;10.07;55.16;101547.44;5080819;27;45477;-52
2021/10/22 01:16:29;;;;;;;;;17.25;15.75;;;;;10.05;55.35;101554.44;5080657;27;46126;-50
2021/10/22 01:18:55;;;;;;;;;15.25;15.00;;;;;10.05;55.27;101549.19;5079581;28;45829;-50
2021/10/22 01:21:20;;;;;;;;;18.50;17.25;;;;;10.02;55.51;101551.78;5081180;27;45343;-47
2021/10/22 01:23:47;;;;;;;;;16.75;15.25;;;;;10.00;55.28;101547.41;5080841;27;45417;-49
2021/10/22 01:26:12;;;;;;;;;16.50;16.50;;;;;10.00;55.40;101552.66;5079325;28;47440;-49
2021/10/22 01:28:38;;;;;;;;;22.50;16.00;;;;;9.96;55.21;101558.78;5098788;27;45413;-52
2021/10/22 01:31:03;;;;;;;;;20.00;16.50;;;;;9.94;55.56;101553.53;5093595;27;46378;-49
2021/10/22 01:33:29;;;;;;;;;21.25;19.25;;;;;9.92;55.34;101555.28;5079377;28;45737;-51
2021/10/22 01:35:54;;;;;;;;;17.75;15.25;;;;;9.86;55.60;101547.41;5080700;27;45272;-51
2021/10/22 01:38:23;;;;;;;;;17.00;15.00;;;;;9.90;55.35;101560.53;5080662;27;45306;-50
2021/10/22 01:40:54;;;;;;;;;18.50;17.25;;;;;9.87;55.55;101565.81;5080684;27;45593;-51
2021/10/22 01:43:21;;;;;;;;;20.75;18.00;;;;;9.84;55.48;101557.91;5080389;27;45265;-49
2021/10/22 01:45:46;;;;;;;;;14.25;14.00;;;;;9.83;55.63;101555.28;5080482;27;46174;-49
2021/10/22 01:48:11;;;;;;;;;15.50;15.00;;;;;9.83;55.46;101568.41;5080202;27;45292;-50
2021/10/22 01:50:37;;;;;;;;;15.75;14.25;;;;;9.82;55.46;101562.25;5092842;27;45402;-50
2021/10/22 01:53:03;;;;;;;;;16.00;14.50;;;;;9.80;55.40;101560.50;5080433;28;45207;-49
2021/10/22 01:55:28;;;;;;;;;25.50;21.00;;;;;9.80;55.93;101571.00;5080376;27;46190;-50
2021/10/22 01:57:53;;;;;;;;;16.50;16.50;;;;;9.76;55.55;101572.78;5078829;28;45415;-50
2021/10/22 02:00:19;;;;;;;;;20.50;18.00;;;;;9.76;55.38;101563.13;5079961;27;45310;-50
2021/10/22 02:02:44;;;;;;;;;16.25;14.25;;;;;9.75;55.48;101564.00;5080420;27;45420;-47
2021/10/22 02:05:09;;;;;;;;;17.25;16.00;;;;;9.73;55.60;101559.63;5080286;27;45227;-52
2021/10/22 02:07:35;;;;;;;;;15.75;12.75;;;;;9.70;55.56;101563.13;5080303;27;45331;-53
2021/10/22 02:10:01;;;;;;;;;18.00;16.25;;;;;9.70;55.69;101559.63;5079186;28;45311;-51
2021/10/22 02:12:26;;;;;;;;;15.00;15.00;;;;;9.69;55.80;101557.88;5078588;28;45533;-51
2021/10/22 02:14:52;;;;;;;;;18.25;16.50;;;;;9.67;55.75;101557.88;5061713;28;47664;-48
2021/10/22 02:17:17;;;;;;;;;17.00;14.75;;;;;9.65;55.76;101561.34;5080236;27;45326;-52
2021/10/22 02:19:42;;;;;;;;;14.50;13.50;;;;;9.63;55.65;101556.09;5080503;27;45281;-52
2021/10/22 02:22:08;;;;;;;;;19.50;16.75;;;;;9.62;55.54;101562.22;5080094;27;45291;-50
2021/10/22 02:24:33;;;;;;;;;18.50;17.50;;;;;9.60;55.54;101569.22;5080190;27;45991;-48
2021/10/22 02:26:59;;;;;;;;;17.00;16.00;;;;;9.59;55.50;101568.31;5084016;27;45377;-51
2021/10/22 02:29:24;;;;;;;;;14.00;14.00;;;;;9.58;55.59;101570.94;5099407;27;45378;-50
2021/10/22 02:31:50;;;;;;;;;13.25;13.00;;;;;9.57;55.69;101563.94;5084417;27;45375;-50
2021/10/22 02:34:16;;;;;;;;;14.50;13.00;;;;;9.55;55.81;101558.69;5080065;27;45251;-47
2021/10/22 02:36:41;;;;;;;;;14.00;14.00;;;;;9.52;55.86;101561.31;5079812;27;45264;-50
2021/10/22 02:39:07;;;;;;;;;14.75;12.25;;;;;9.52;55.71;101557.81;5080148;27;45380;-51
2021/10/22 02:41:33;;;;;;;;;16.25;13.50;;;;;9.48;55.80;101548.19;5079578;27;45198;-51
2021/10/22 02:43:58;;;;;;;;;19.50;15.00;;;;;9.50;55.68;101562.19;5078338;28;46322;-50
2021/10/22 02:46:23;;;;;;;;;14.00;13.50;;;;;9.47;55.75;101567.41;5079756;27;45322;-51
2021/10/22 02:48:49;;;;;;;;;16.25;14.50;;;;;9.43;55.63;101567.41;5086090;27;45416;-50
2021/10/22 02:51:14;;;;;;;;;20.00;14.75;;;;;9.43;55.67;101564.78;5085581;27;45546;-48
2021/10/22 02:53:39;;;;;;;;;14.00;11.25;;;;;9.40;55.81;101559.53;5079751;27;45311;-50
2021/10/22 02:56:05;;;;;;;;;16.75;15.00;;;;;9.38;55.84;101561.28;5079468;27;45327;-49
2021/10/22 02:58:31;;;;;;;;;17.00;12.25;;;;;9.37;55.93;101562.16;5079720;27;45370;-47
2021/10/22 03:00:56;;;;;;;;;16.75;15.00;;;;;9.34;55.75;101566.50;5078498;27;45410;-51
2021/10/22 03:03:21;;;;;;;;;15.75;13.75;;;;;9.33;55.86;101570.84;5079635;27;45409;-50
2021/10/22 03:05:47;;;;;;;;;19.00;16.75;;;;;9.33;56.06;101572.63;5078185;28;45333;-49
2021/10/22 03:08:12;;;;;;;;;16.75;14.25;;;;;9.33;56.06;101577.84;5079748;27;45315;-50
2021/10/22 03:10:37;;;;;;;;;17.50;16.00;;;;;9.31;55.55;101570.00;5079372;27;45377;-48
2021/10/22 03:13:03;;;;;;;;;14.50;14.50;;;;;9.29;55.79;101563.84;5080673;27;46578;-52
2021/10/22 03:15:28;;;;;;;;;11.75;10.25;;;;;9.29;55.66;101574.34;5082714;27;45229;-49
2021/10/22 03:17:57;;;;;;;;;15.00;14.25;;;;;9.27;56.12;101566.47;5081890;27;45178;-52
2021/10/22 03:20:22;;;;;;;;;15.25;14.25;;;;;9.25;56.14;101567.34;5082900;27;45472;-50
2021/10/22 03:22:48;;;;;;;;;13.75;13.75;;;;;9.26;55.71;101571.72;5081509;28;48090;-53
2021/10/22 03:25:14;;;;;;;;;15.00;12.75;;;;;9.25;55.66;101576.06;5081671;28;45298;-50
2021/10/22 03:27:41;;;;;;;;;17.50;14.00;;;;;9.24;55.89;101576.97;5092734;27;45264;-52
2021/10/22 03:30:07;;;;;;;;;14.25;14.25;;;;;9.23;55.88;101576.94;5101913;27;45324;-49
2021/10/22 03:32:33;;;;;;;;;12.75;12.25;;;;;9.22;55.79;101572.56;5082454;27;46530;-52
2021/10/22 03:35:02;;;;;;;;;14.00;14.00;;;;;9.20;55.87;101574.31;5082765;27;45280;-51
2021/10/22 03:37:27;;;;;;;;;16.00;15.00;;;;;9.19;56.17;101576.03;5071830;27;45280;-51
2021/10/22 03:39:53;;;;;;;;;15.75;15.00;;;;;9.18;56.06;101573.41;5103112;27;45161;-49
2021/10/22 03:42:19;;;;;;;;;19.00;17.50;;;;;9.17;56.01;101579.53;5102732;27;45986;-51
2021/10/22 03:44:44;;;;;;;;;20.00;18.75;;;;;9.15;56.10;101578.66;5103095;27;45304;-50
2021/10/22 03:47:10;;;;;;;;;17.00;14.50;;;;;9.15;55.88;101576.03;5103066;27;45657;-51
2021/10/22 03:49:35;;;;;;;;;12.00;12.00;;;;;9.13;56.00;101572.53;5102826;27;45432;-52
2021/10/22 03:52:01;;;;;;;;;16.50;12.00;;;;;9.13;55.81;101583.00;5082216;27;45866;-51
2021/10/22 03:54:26;;;;;;;;;15.25;15.00;;;;;9.11;55.93;101573.38;5082354;27;45390;-51
2021/10/22 03:56:51;;;;;;;;;20.50;18.75;;;;;9.12;56.11;101576.91;5082022;27;45358;-51
2021/10/22 03:59:17;;;;;;;;;11.25;10.25;;;;;9.10;56.26;101579.50;5081092;27;45356;-52
2021/10/22 04:01:45;;;;;;;;;16.75;16.50;;;;;9.09;56.03;101590.88;5082186;27;45327;-51
2021/10/22 04:04:11;;;;;;;;;16.00;13.00;;;;;9.08;56.04;101589.13;5082384;27;45238;-48
2021/10/22 04:06:37;;;;;;;;;16.50;15.50;;;;;9.08;55.99;101581.25;5082144;27;45347;-50
2021/10/22 04:09:03;;;;;;;;;12.00;11.00;;;;;9.05;55.99;101585.59;5080869;28;45202;-48
2021/10/22 04:11:28;;;;;;;;;14.50;13.00;;;;;9.05;56.17;101588.22;5081814;27;46153;-51
2021/10/22 04:13:55;;;;;;;;;13.25;13.25;;;;;8.96;56.08;101572.44;5082001;27;45411;-52
2021/10/22 04:16:20;;;;;;;;;16.25;14.75;;;;;9.03;56.42;101587.31;5082031;27;45315;-50
2021/10/22 04:18:46;;;;;;;;;14.75;14.25;;;;;9.02;55.81;101599.56;5080695;28;45808;-51
2021/10/22 04:21:11;;;;;;;;;12.25;12.25;;;;;8.99;56.03;101594.28;5081825;27;46127;-49
2021/10/22 04:23:36;;;;;;;;;15.50;13.75;;;;;8.98;56.24;101595.19;5080300;28;45370;-52
2021/10/22 04:26:02;;;;;;;;;17.00;14.25;;;;;8.93;56.30;101592.53;5080400;27;45237;-50
2021/10/22 04:28:27;;;;;;;;;13.25;13.00;;;;;8.96;56.25;101598.66;5098756;27;45436;-49
2021/10/22 04:30:53;;;;;;;;;15.00;15.00;;;;;8.93;55.97;101602.09;5095711;27;45997;-51
2021/10/22 04:33:18;;;;;;;;;16.75;15.25;;;;;8.87;56.51;101589.00;5081849;27;45463;-51
2021/10/22 04:35:44;;;;;;;;;21.75;18.00;;;;;8.87;56.12;101599.47;5087697;27;45413;-51
2021/10/22 04:40:41;;;;;;;;;13.00;12.00;;;;;8.82;56.29;101598.53;5101685;27;45333;-48
2021/10/22 04:43:10;;;;;;;;;10.00;10.00;;;;;8.80;56.33;101600.28;5101871;27;45751;-51
2021/10/22 04:45:38;;;;;;;;;13.75;12.75;;;;;8.75;56.06;101606.38;5102033;27;45385;-47
2021/10/22 04:48:06;;;;;;;;;15.50;12.75;;;;;8.73;56.06;101608.09;5101532;27;45295;-50
2021/10/22 04:50:34;;;;;;;;;11.50;11.50;;;;;8.72;56.32;101616.84;5088045;27;47295;-47
2021/10/22 04:53:00;;;;;;;;;17.25;15.00;;;;;8.71;56.21;101617.69;5100323;27;45304;-50
2021/10/22 04:55:28;;;;;;;;;16.00;15.25;;;;;8.68;56.12;101617.69;5101448;27;45299;-49
2021/10/22 04:57:54;;;;;;;;;17.75;16.75;;;;;8.67;56.22;101618.53;5100238;27;45768;-49
2021/10/22 05:00:20;;;;;;;;;17.75;15.50;;;;;8.67;56.07;101625.53;5101561;27;45469;-52
2021/10/22 05:02:46;;;;;;;;;19.00;17.25;;;;;8.66;56.29;101623.78;5101685;27;45536;-52
2021/10/22 05:05:12;;;;;;;;;34.75;31.25;;;;;8.65;56.07;101627.25;5101229;27;45519;-48
2021/10/22 05:07:38;;;;;;;;;16.00;13.50;;;;;8.64;56.11;101618.53;5101545;27;45279;-51
2021/10/22 05:10:04;;;;;;;;;16.50;14.25;;;;;8.62;56.39;101621.13;5101541;27;46074;-53
2021/10/22 05:12:29;;;;;;;;;14.00;13.00;;;;;8.62;56.17;101612.41;5100743;27;45214;-51
2021/10/22 05:14:55;;;;;;;;;19.25;15.00;;;;;8.60;56.30;101616.72;5101160;27;45198;-46
2021/10/22 05:17:20;;;;;;;;;15.00;15.00;;;;;8.60;56.13;101619.34;5101235;27;45498;-52
2021/10/22 05:19:46;;;;;;;;;16.50;14.00;;;;;8.57;56.25;101628.06;5101482;27;46728;-51
2021/10/22 05:22:11;;;;;;;;;20.75;16.75;;;;;8.57;56.27;101630.69;5101244;27;45290;-49
2021/10/22 05:24:36;;;;;;;;;17.50;17.50;;;;;8.55;56.11;101627.19;5101454;27;45241;-50
2021/10/22 05:27:02;;;;;;;;;17.50;14.75;;;;;8.57;56.25;101627.19;5100620;27;45225;-50
2021/10/22 05:29:27;;;;;;;;;18.75;15.25;;;;;8.55;56.21;101632.44;5101187;27;46026;-51
2021/10/22 05:31:53;;;;;;;;;17.50;14.50;;;;;8.56;56.25;101631.53;5085958;27;45290;-52
2021/10/22 05:34:21;;;;;;;;;17.00;16.50;;;;;8.55;56.35;101636.78;5079896;27;45877;-49
2021/10/22 05:36:48;;;;;;;;;11.00;10.00;;;;;8.55;56.24;101637.69;5080634;27;45386;-51
2021/10/22 05:39:15;;;;;;;;;18.00;17.75;;;;;8.55;56.31;101640.28;5079342;27;48422;-53
2021/10/22 05:41:40;;;;;;;;;26.00;21.50;;;;;8.54;56.31;101640.25;5080115;27;45497;-52
2021/10/22 05:44:06;;;;;;;;;17.25;15.00;;;;;8.52;56.42;101636.78;5080395;27;45253;-53
2021/10/22 05:46:31;;;;;;;;;20.75;15.00;;;;;8.51;56.29;101625.41;5080080;27;45490;-75
2021/10/22 05:48:57;;;;;;;;;18.00;17.25;;;;;8.52;56.53;101626.28;5087841;27;45317;-53
2021/10/22 05:51:23;;;;;;;;;27.75;24.00;;;;;8.52;56.24;101632.41;5083798;27;45525;-49
2021/10/22 05:53:48;;;;;;;;;16.00;12.25;;;;;8.50;56.13;101638.50;5080571;27;45279;-53
2021/10/22 05:56:13;;;;;;;;;20.00;15.00;;;;;8.49;56.62;101639.34;5080072;27;45315;-52
2021/10/22 05:58:39;;;;;;;;;18.75;18.25;;;;;8.48;56.39;101637.59;5079919;27;46923;-52
2021/10/22 06:01:04;;;;;;;;;16.50;16.50;;;;;8.47;56.37;101630.63;5080273;27;45326;-51
2021/10/22 06:03:29;;;;;;;;;15.50;15.50;;;;;8.45;56.37;101635.78;5080487;27;45387;-51
2021/10/22 06:05:55;;;;;;;;;20.50;19.25;;;;;8.43;56.37;101635.78;5080240;27;45307;-51
2021/10/22 06:08:22;;;;;;;;;19.75;17.50;;;;;8.41;56.24;101636.63;5079143;27;45352;-51
2021/10/22 06:10:48;;;;;;;;;21.25;18.25;;;;;8.39;56.37;101630.47;5080070;27;45359;-50
2021/10/22 06:13:17;;;;;;;;;20.50;17.50;;;;;8.38;56.26;101645.34;5079765;27;45342;-52
2021/10/22 06:15:43;;;;;;;;;17.25;15.25;;;;;8.31;56.46;101635.66;5079773;27;45273;-48
2021/10/22 06:18:08;;;;;;;;;14.75;13.00;;;;;8.35;56.43;101640.09;5080192;27;45497;-48
2021/10/22 06:25:59;;;;;;;;;18.00;16.75;;;;;8.23;56.59;101638.22;5079746;28;45421;-46
2021/10/22 06:28:24;;;;;;;;;18.50;16.75;;;;;8.34;56.32;101661.91;5096306;27;45279;-49
2021/10/22 06:30:50;;;;;;;;;19.75;18.00;;;;;8.34;56.31;101667.13;5092726;27;45283;-50
2021/10/22 06:33:16;;;;;;;;;21.75;18.00;;;;;8.35;56.34;101675.84;5080125;27;45251;-48
2021/10/22 06:35:44;;;;;;;;;22.75;20.00;;;;;8.35;56.15;101679.38;5079964;28;45381;-49
2021/10/22 06:38:09;;;;;;;;;24.75;21.50;;;;;8.34;56.23;101669.75;5079642;27;46064;-50
2021/10/22 06:40:35;;;;;;;;;18.00;17.00;;;;;8.34;56.29;101672.38;5079401;27;45646;-50
2021/10/22 06:43:00;;;;;;;;;20.00;18.00;;;;;8.36;56.46;101668.00;5078653;28;45243;-51
2021/10/22 06:45:26;;;;;;;;;25.00;21.75;;;;;8.36;56.24;101669.75;5079854;27;45276;-51
2021/10/22 06:47:51;;;;;;;;;24.75;23.50;;;;;8.37;56.34;101680.25;5081969;27;46989;-52
2021/10/22 06:50:17;;;;;;;;;25.00;21.00;;;;;8.39;56.34;101688.13;5095189;27;45308;-52
2021/10/22 06:52:42;;;;;;;;;24.50;23.75;;;;;8.39;56.21;101699.50;5083380;27;45319;-50
2021/10/22 06:55:09;;;;;;;;;22.25;21.25;;;;;8.42;56.54;101709.97;5081941;27;45314;-52
2021/10/22 06:57:39;;;;;;;;;21.25;17.00;;;;;8.42;56.35;101707.38;5082857;27;45278;-53
2021/10/22 07:00:06;;;;;;;;;21.25;18.75;;;;;8.42;56.35;101717.84;5083280;27;45260;-52
2021/10/22 07:02:31;;;;;;;;;25.25;19.25;;;;;8.41;56.66;101716.06;5081992;28;45371;-51
2021/10/22 07:04:56;;;;;;;;;21.00;19.50;;;;;8.43;56.43;101718.72;5082996;27;45260;-53
2021/10/22 07:07:24;;;;;;;;;21.75;20.25;;;;;8.41;56.47;101716.06;5083134;27;45395;-51
2021/10/22 07:09:51;;;;;;;;;19.50;18.25;;;;;8.43;56.61;101722.22;5083126;27;45285;-52
2021/10/22 07:12:16;;;;;;;;;23.25;20.50;;;;;8.44;56.32;101731.84;5082795;27;45487;-52
2021/10/22 07:14:49;;;;;;;;;22.00;18.50;;;;;8.45;56.29;101735.31;5082756;27;45161;-49
2021/10/22 07:17:15;;;;;;;;;22.25;20.75;;;;;8.46;56.17;101737.13;5082813;27;46836;-52
2021/10/22 07:19:40;;;;;;;;;18.25;14.50;;;;;8.47;56.57;101732.78;5081635;28;45287;-50
2021/10/22 07:22:12;;;;;;;;;16.75;16.00;;;;;8.47;56.47;101732.78;5082911;27;45272;-52
2021/10/22 07:24:37;;;;;;;;;17.50;17.50;;;;;8.47;56.38;101732.78;5082782;27;45323;-51
2021/10/22 07:27:03;;;;;;;;;22.75;18.75;;;;;8.46;56.48;101737.13;5085986;27;47224;-51
2021/10/22 07:29:29;;;;;;;;;20.50;17.75;;;;;8.46;56.48;101744.97;5103396;27;45214;-52
2021/10/22 07:31:54;;;;;;;;;18.75;18.00;;;;;8.46;56.92;101739.75;5088040;27;45267;-51
2021/10/22 07:34:21;;;;;;;;;20.75;18.50;;;;;8.45;56.69;101751.94;5082756;27;45579;-52
2021/10/22 07:36:48;;;;;;;;;20.75;18.00;;;;;8.45;56.68;101748.44;5082509;27;45924;-51
2021/10/22 07:39:15;;;;;;;;;27.00;25.00;;;;;8.45;56.53;101756.28;5081300;27;45267;-50
2021/10/22 07:41:41;;;;;;;;;25.25;19.25;;;;;8.46;56.57;101758.09;5082341;27;45484;-52
2021/10/22 07:44:06;;;;;;;;;35.50;27.25;;;;;8.48;56.80;101763.31;5082405;27;45323;-51
2021/10/22 07:46:32;;;;;;;;;24.50;22.25;;;;;8.48;56.83;101753.75;5082129;27;46116;-52
2021/10/22 07:48:57;;;;;;;;;23.00;23.00;;;;;8.49;56.78;101760.75;5089720;27;45332;-51
2021/10/22 07:51:23;;;;;;;;;22.50;20.75;;;;;8.46;56.90;101758.09;5088204;27;45452;-48
2021/10/22 07:53:49;;;;;;;;;21.00;20.00;;;;;8.50;56.76;101757.25;5082675;27;45307;-50
2021/10/22 07:56:15;;;;;;;;;20.50;20.50;;;;;8.51;57.08;101766.88;5082027;28;46088;-53
2021/10/22 07:58:40;;;;;;;;;22.25;19.50;;;;;8.55;56.83;101767.78;5081350;27;45335;-52
2021/10/22 08:01:05;;;;;;;;;20.75;16.50;;;;;8.59;57.28;101766.94;5082390;27;45267;-53
2021/10/22 08:03:33;;;;;;;;;20.00;17.00;;;;;8.61;56.88;101768.72;5082262;27;45478;-52
2021/10/22 08:05:58;;;;;;;;;15.50;14.00;;;;;8.65;56.79;101767.00;5082051;27;46140;-49
2021/10/22 08:08:24;;;;;;;;;18.50;16.25;;;;;8.68;56.84;101769.69;5082048;27;45268;-53
2021/10/22 08:10:49;;;;;;;;;19.25;17.50;;;;;8.71;56.89;101761.81;5081703;27;45460;-53
2021/10/22 08:13:14;;;;;;;;;21.50;19.00;;;;;8.74;57.08;101767.13;5081885;27;45382;-50
2021/10/22 08:15:42;;;;;;;;;22.25;19.75;;;;;8.84;57.01;101772.44;5081545;27;46217;-51
2021/10/22 08:18:11;;;;;;;;;19.25;19.00;;;;;8.89;57.03;101775.97;5081871;27;45450;-50
2021/10/22 08:21:01;;;;;;;;;25.25;22.50;;;;;8.96;57.03;101774.31;5081591;27;45259;-52
2021/10/22 08:23:27;;;;;;;;;21.25;18.50;;;;;9.03;56.98;101777.00;5081658;27;45462;-51
2021/10/22 08:25:53;;;;;;;;;32.75;31.25;;;;;9.09;57.27;101782.28;5081130;27;46208;-51
2021/10/22 08:28:20;;;;;;;;;16.25;16.25;;;;;9.17;57.04;101786.69;5096998;27;45355;-52
2021/10/22 08:30:47;;;;;;;;;21.25;16.25;;;;;9.24;56.98;101792.03;5096685;27;45229;-51
2021/10/22 08:33:12;;;;;;;;;22.50;21.00;;;;;9.32;57.07;101797.34;5081532;27;45378;-53
2021/10/22 08:35:38;;;;;;;;;25.75;22.75;;;;;9.38;57.21;101789.53;5079723;27;46909;-52
2021/10/22 08:38:06;;;;;;;;;26.25;23.75;;;;;9.46;57.13;101792.19;5081382;27;45374;-51
2021/10/22 08:40:32;;;;;;;;;23.75;21.50;;;;;9.58;57.17;101796.63;5081225;27;45407;-52
2021/10/22 08:42:57;;;;;;;;;26.75;24.25;;;;;9.67;57.32;101801.06;5081341;27;45391;-51
2021/10/22 08:45:22;;;;;;;;;27.75;26.00;;;;;9.78;56.97;101809.03;5081201;27;45324;-52
2021/10/22 08:47:49;;;;;;;;;22.25;22.00;;;;;9.88;57.04;101797.69;5081571;27;45303;-53
2021/10/22 08:50:17;;;;;;;;;28.75;25.75;;;;;9.99;57.06;101803.91;5093699;27;45349;-49
2021/10/22 08:52:44;;;;;;;;;25.50;24.00;;;;;10.09;57.50;101802.19;5081164;27;45474;-52
2021/10/22 08:55:11;;;;;;;;;24.75;20.75;;;;;10.21;57.30;101807.50;5080842;27;46126;-49
2021/10/22 08:57:46;;;;;;;;;16.25;15.75;;;;;10.37;57.26;101812.84;5081183;27;45345;-52
2021/10/22 09:00:17;;;;;;;;;21.00;20.25;;;;;10.49;57.12;101806.75;5081651;27;45286;-53
2021/10/22 09:02:45;;;;;;;;;14.75;13.00;;;;;10.57;57.07;101807.66;5081301;27;45494;-51
2021/10/22 09:05:19;;;;;;;;;14.50;12.00;;;;;10.69;57.11;101810.31;5081027;27;46162;-49
2021/10/22 09:07:50;;;;;;;;;12.75;11.50;;;;;10.81;56.96;101808.59;5081277;27;45342;-51
2021/10/22 09:10:28;;;;;;;;;14.00;11.00;;;;;10.94;57.14;101807.72;5081109;28;45452;-50
2021/10/22 09:12:56;;;;;;;;;13.50;12.50;;;;;11.05;57.00;101800.72;5080771;27;45473;-55
2021/10/22 09:15:23;;;;;;;;;9.75;9.75;;;;;11.18;56.90;101811.25;5080692;27;46113;-48
2021/10/22 09:17:49;;;;;;;;;17.25;12.50;;;;;11.29;56.84;101809.50;5080928;27;45255;-51
2021/10/22 09:20:16;;;;;;;;;11.75;10.75;;;;;11.40;56.87;101811.28;5081021;27;45245;-53
2021/10/22 09:22:53;;;;;;;;;13.75;13.00;;;;;11.53;56.94;101803.38;5080883;27;45223;-53
2021/10/22 09:25:22;;;;;;;;;10.75;9.25;;;;;11.65;56.86;101815.63;5079247;27;45392;-53
2021/10/22 09:27:51;;;;;;;;;12.50;12.00;;;;;11.76;56.88;101823.50;5091925;27;45413;-48
2021/10/22 09:30:37;;;;;;;;;14.00;12.00;;;;;11.91;56.76;101824.34;5100057;27;45278;-52
2021/10/22 09:33:05;;;;;;;;;16.25;14.50;;;;;12.03;56.62;101821.72;5080690;27;45346;-51
2021/10/22 09:35:51;;;;;;;;;13.25;12.00;;;;;12.17;56.71;101826.94;5080289;27;45431;-51
2021/10/22 09:38:23;;;;;;;;;5.00;5.00;;;;;12.30;56.69;101833.03;5080604;27;45447;-53
2021/10/22 09:40:51;;;;;;;;;7.25;5.00;;;;;12.45;56.64;101837.38;5080519;27;45404;-50
2021/10/22 09:43:37;;;;;;;;;8.50;6.00;;;;;12.63;56.33;101833.78;5078895;27;45446;-54
2021/10/22 09:46:14;;;;;;;;;7.00;6.25;;;;;12.80;56.55;101838.94;5080343;28;45387;-51
2021/10/22 09:48:45;;;;;;;;;8.75;8.75;;;;;12.96;56.58;101835.31;5085141;27;45314;-53
2021/10/22 09:51:31;;;;;;;;;5.50;5.50;;;;;13.19;56.08;101831.63;5087007;27;45430;-53
2021/10/22 09:54:02;;;;;;;;;7.00;7.00;;;;;13.37;56.18;101840.28;5079092;28;45331;-51
2021/10/22 09:56:29;;;;;;;;;3.50;3.00;;;;;13.54;56.23;101837.56;5078673;28;47238;-52
2021/10/22 09:59:04;;;;;;;;;3.75;3.00;;;;;13.69;55.82;101841.81;5078883;28;45340;-52
2021/10/22 10:01:40;;;;;;;;;4.75;4.75;;;;;13.86;56.13;101837.25;5080346;27;45306;-52
2021/10/22 10:04:07;;;;;;;;;4.00;4.00;;;;;14.04;55.94;101843.22;5080292;27;45484;-50
2021/10/22 10:06:33;;;;;;;;;4.25;3.25;;;;;14.21;56.12;101843.88;5079921;27;46514;-53
2021/10/22 10:09:00;;;;;;;;;11.25;9.50;;;;;14.35;55.61;101840.19;5080359;27;45274;-51
2021/10/22 10:11:27;;;;;;;;;10.25;10.00;;;;;14.52;55.29;101847.94;5079824;27;45300;-51
2021/10/22 10:13:57;;;;;;;;;2.00;1.25;;;;;14.69;55.48;101845.97;5079956;27;45414;-51
2021/10/22 10:16:23;;;;;;;;;10.25;8.00;;;;;14.85;55.64;101856.34;5079792;27;45359;-54
2021/10/22 10:18:55;;;;;;;;;5.75;4.50;;;;;14.98;55.06;101851.72;5079823;27;45279;-54
2021/10/22 10:21:23;;;;;;;;;3.25;3.25;;;;;15.13;55.33;101850.63;5083490;27;45378;-53
2021/10/22 10:23:50;;;;;;;;;3.25;2.50;;;;;15.24;55.17;101849.56;5086720;27;45473;-50
2021/10/22 10:26:31;;;;;;;;;3.25;2.50;;;;;15.42;54.99;101852.78;5086418;27;47007;-51
2021/10/22 10:28:59;;;;;;;;;2.00;2.00;;;;;15.49;54.76;101851.78;5090148;27;45318;-53
2021/10/22 10:31:41;;;;;;;;;3.50;1.25;;;;;15.61;54.41;101850.72;5095075;27;45262;-52
2021/10/22 10:34:29;;;;;;;;;4.50;3.25;;;;;15.64;54.44;101839.19;5086602;27;45440;-51
2021/10/22 10:36:59;;;;;;;;;5.00;2.50;;;;;15.80;54.59;101855.66;5085296;27;47239;-51
2021/10/22 10:39:50;;;;;;;;;2.00;2.00;;;;;15.88;53.96;101846.72;5086476;27;45357;-50
2021/10/22 10:42:16;;;;;;;;;2.75;1.25;;;;;15.98;54.18;101849.19;5085014;27;45291;-53
2021/10/22 10:44:43;;;;;;;;;2.75;1.00;;;;;16.08;53.78;101850.75;5086405;27;45219;-50
2021/10/22 10:47:27;;;;;;;;;3.25;1.50;;;;;16.18;53.97;101847.03;5087036;27;46550;-54
2021/10/22 10:49:52;;;;;;;;;3.75;2.00;;;;;16.28;54.08;101846.84;5098925;27;45173;-54
2021/10/22 10:52:36;;;;;;;;;3.25;1.75;;;;;16.42;53.69;101858.03;5086718;27;45283;-51
2021/10/22 10:55:30;;;;;;;;;1.00;1.00;;;;;16.53;53.69;101853.38;5086226;27;45297;-53
2021/10/22 10:58:09;;;;;;;;;0.75;0.75;;;;;16.66;53.29;101850.47;5086281;27;45492;-51
2021/10/22 11:00:40;;;;;;;;;3.50;1.50;;;;;16.78;52.99;101854.59;5086275;27;45276;-52
2021/10/22 11:03:14;;;;;;;;;1.25;1.25;;;;;16.88;53.16;101846.41;5086233;27;45247;-52
2021/10/22 11:05:46;;;;;;;;;3.00;3.00;;;;;17.01;52.91;101846.16;5086468;27;45279;-51
2021/10/22 11:08:30;;;;;;;;;2.25;1.25;;;;;17.12;52.56;101856.50;5086364;27;47093;-53
2021/10/22 11:11:20;;;;;;;;;1.00;1.00;;;;;17.22;52.61;101850.09;5085909;27;45258;-52
2021/10/22 11:14:04;;;;;;;;;2.25;1.00;;;;;17.30;52.23;101845.44;5086145;27;45317;-50
2021/10/22 11:16:38;;;;;;;;;0.75;0.75;;;;;17.40;51.82;101834.59;5095139;27;45417;-52
2021/10/22 11:19:14;;;;;;;;;2.25;2.00;;;;;17.51;51.97;101835.22;5106495;27;47008;-52
2021/10/22 11:21:46;;;;;;;;;1.50;0.75;;;;;17.60;51.92;101828.78;5106757;27;45521;-50
2021/10/22 11:24:19;;;;;;;;;3.50;2.25;;;;;17.71;51.82;101835.53;5106623;27;45254;-51
2021/10/22 11:26:56;;;;;;;;;1.00;1.00;;;;;17.77;51.39;101831.81;5106199;27;45398;-51